Ferry Kyoto2 — JI3701 — position and weather

sailwx.info

Track history (hours):
 
Tides and Currents Weather Stations Pressure Air Temp Water Temp Dewpoint Dewpoint Depression Visibility Wind Speed Wind Dir Waves Ship Positions

Ferry Kyoto2

Last reported at 2015-Jan-29 09:30 UTC. Time now 2015-Jan-29 10:19 UTC.
Position N 34°37' E 135°26'.

Length 167 m; draft 6 m.

Type: Passenger vessel. MMSI: 431301641.

Date/timePositionNaut miles runAvg speedWind from/ knotsBaromVisibWave heightAir tempDewpointWater temp
2015-Jan-29 09:30N 34°37' E 135°26'0 0.0
2015-Jan-29 08:30N 34°37' E 135°26'0 0.0
2015-Jan-29 07:24N 34°37' E 135°26'0 0.0
2015-Jan-29 06:24N 34°37' E 135°26'0 0.0
2015-Jan-29 05:12N 34°37' E 135°26'0 0.0
2015-Jan-29 04:30N 34°37' E 135°26'0 0.0
2015-Jan-29 03:24N 34°37' E 135°26'0 0.0
2015-Jan-29 02:30N 34°37' E 135°26'0 0.0
2015-Jan-29 01:12N 34°37' E 135°26'0 0.0
2015-Jan-29 00:30N 34°37' E 135°26'0 0.0
2015-Jan-28 23:33N 34°37' E 135°26'1313.2
2015-Jan-28 22:33N 34°34' E 135°10'2020.0
2015-Jan-28 21:33N 34°32' E 134°46'4 0.1
2015-Jan-27 12:33N 34°34' E 134°50'1919.3
2015-Jan-27 11:33N 34°36' E 135°13'10 9.9
2015-Jan-27 10:30N 34°37' E 135°26'0 0.0
2015-Jan-27 09:30N 34°37' E 135°26'0 0.0
2015-Jan-27 08:30N 34°37' E 135°26'0 0.0
2015-Jan-27 07:18N 34°37' E 135°26'0 0.0
2015-Jan-27 06:18N 34°37' E 135°26'0 0.0
2015-Jan-27 05:30N 34°37' E 135°26'0 0.0
2015-Jan-27 04:30N 34°37' E 135°26'0 0.0
2015-Jan-27 03:24N 34°37' E 135°26'0 0.0
2015-Jan-27 02:30N 34°37' E 135°26'0 0.0
2015-Jan-27 01:24N 34°37' E 135°26'0 0.0
2015-Jan-27 00:30N 34°37' E 135°26'0 0.0
2015-Jan-26 23:30N 34°37' E 135°26'1010.7
2015-Jan-26 22:33N 34°35' E 135°14'1919.4
2015-Jan-26 21:34N 34°34' E 134°50'1 0.0
2015-Jan-25 12:29N 34°35' E 134°50'1920.5
2015-Jan-25 11:33N 34°36' E 135°13'1110.9
2015-Jan-25 10:33N 34°37' E 135°26'0 0.0
2015-Jan-25 09:32N 34°37' E 135°26'0 0.0
2015-Jan-25 08:32N 34°37' E 135°26'0 0.0
2015-Jan-25 07:14N 34°37' E 135°26'0 0.0
2015-Jan-25 06:32N 34°37' E 135°26'0 0.0
2015-Jan-25 05:32N 34°37' E 135°26'0 0.0
2015-Jan-25 04:32N 34°37' E 135°26'0 0.0
2015-Jan-25 03:32N 34°37' E 135°26'0 0.0
2015-Jan-25 02:32N 34°37' E 135°26'0 0.0
2015-Jan-25 01:32N 34°37' E 135°26'0 0.0
2015-Jan-25 00:32N 34°37' E 135°26'0 0.0
2015-Jan-24 23:32N 34°37' E 135°26'9 8.8
2015-Jan-24 22:34N 34°35' E 135°16'1918.7
2015-Jan-24 21:33N 34°34' E 134°53'4 0.1
2015-Jan-23 12:32N 34°34' E 134°48'2121.5
2015-Jan-23 11:33N 34°36' E 135°14'10 9.0
2015-Jan-23 10:26N 34°37' E 135°26'0 0.0
2015-Jan-23 09:32N 34°37' E 135°26'0 0.0
2015-Jan-23 08:29N 34°37' E 135°26'0 0.0
2015-Jan-23 07:29N 34°37' E 135°26'0 0.0
2015-Jan-23 06:29N 34°37' E 135°26'0 0.0
2015-Jan-23 05:23N 34°37' E 135°26'0 0.0
2015-Jan-23 04:29N 34°37' E 135°26'0 0.0
2015-Jan-23 03:23N 34°37' E 135°26'0 0.0
2015-Jan-23 02:29N 34°37' E 135°26'0 0.0
2015-Jan-23 01:23N 34°37' E 135°26'0 0.0
2015-Jan-23 00:29N 34°37' E 135°26'0 0.0
2015-Jan-22 23:29N 34°37' E 135°26'1011.1
2015-Jan-22 22:33N 34°35' E 135°13'1817.8
2015-Jan-22 21:33N 34°34' E 134°52'4 0.1
2015-Jan-21 12:33N 34°34' E 134°47'2221.9
2015-Jan-21 11:33N 34°36' E 135°13'10 9.9
2015-Jan-21 10:31N 34°37' E 135°26'0 0.0
2015-Jan-21 09:31N 34°37' E 135°26'0 0.0
2015-Jan-21 08:31N 34°37' E 135°26'0 0.0
2015-Jan-21 07:31N 34°37' E 135°26'0 0.0
2015-Jan-21 06:25N 34°37' E 135°26'0 0.0
2015-Jan-21 05:31N 34°37' E 135°26'0 0.0
2015-Jan-21 04:25N 34°37' E 135°26'0 0.0
2015-Jan-21 03:31N 34°37' E 135°26'0 0.0
2015-Jan-21 02:31N 34°37' E 135°26'0 0.0
2015-Jan-21 01:31N 34°37' E 135°26'0 0.0
2015-Jan-21 00:31N 34°37' E 135°26'0 0.0
2015-Jan-20 23:31N 34°37' E 135°26'1111.9
2015-Jan-20 22:33N 34°35' E 135°12'1817.9
2015-Jan-20 21:32N 34°33' E 134°50'2 0.1
2015-Jan-19 12:27N 34°35' E 134°52'1820.0
2015-Jan-19 11:34N 34°36' E 135°14'10 9.6
2015-Jan-19 10:30N 34°37' E 135°26'  
Track history (hours):
 
Tides and Currents Weather Stations Pressure Air Temp Water Temp Dewpoint Dewpoint Depression Visibility Wind Speed Wind Dir Waves Ship Positions

Ferry Kyoto2

Last reported at 2015-Jan-29 09:30 UTC. Time now 2015-Jan-29 10:19 UTC.
Position N 34°37' E 135°26'.

Length 167 m; draft 6 m.

Type: Passenger vessel. MMSI: 431301641.

Date/timePositionNaut miles runAvg speedWind from/ knotsBaromVisibWave heightAir tempDewpointWater temp
2015-Jan-29 09:30N 34°37' E 135°26'0 0.0
2015-Jan-29 08:30N 34°37' E 135°26'0 0.0
2015-Jan-29 07:24N 34°37' E 135°26'0 0.0
2015-Jan-29 06:24N 34°37' E 135°26'0 0.0
2015-Jan-29 05:12N 34°37' E 135°26'0 0.0
2015-Jan-29 04:30N 34°37' E 135°26'0 0.0
2015-Jan-29 03:24N 34°37' E 135°26'0 0.0
2015-Jan-29 02:30N 34°37' E 135°26'0 0.0
2015-Jan-29 01:12N 34°37' E 135°26'0 0.0
2015-Jan-29 00:30N 34°37' E 135°26'0 0.0
2015-Jan-28 23:33N 34°37' E 135°26'1313.2
2015-Jan-28 22:33N 34°34' E 135°10'2020.0
2015-Jan-28 21:33N 34°32' E 134°46'4 0.1
2015-Jan-27 12:33N 34°34' E 134°50'1919.3
2015-Jan-27 11:33N 34°36' E 135°13'10 9.9
2015-Jan-27 10:30N 34°37' E 135°26'0 0.0
2015-Jan-27 09:30N 34°37' E 135°26'0 0.0
2015-Jan-27 08:30N 34°37' E 135°26'0 0.0
2015-Jan-27 07:18N 34°37' E 135°26'0 0.0
2015-Jan-27 06:18N 34°37' E 135°26'0 0.0
2015-Jan-27 05:30N 34°37' E 135°26'0 0.0
2015-Jan-27 04:30N 34°37' E 135°26'0 0.0
2015-Jan-27 03:24N 34°37' E 135°26'0 0.0
2015-Jan-27 02:30N 34°37' E 135°26'0 0.0
2015-Jan-27 01:24N 34°37' E 135°26'0 0.0
2015-Jan-27 00:30N 34°37' E 135°26'0 0.0
2015-Jan-26 23:30N 34°37' E 135°26'1010.7
2015-Jan-26 22:33N 34°35' E 135°14'1919.4
2015-Jan-26 21:34N 34°34' E 134°50'1 0.0
2015-Jan-25 12:29N 34°35' E 134°50'1920.5
2015-Jan-25 11:33N 34°36' E 135°13'1110.9
2015-Jan-25 10:33N 34°37' E 135°26'0 0.0
2015-Jan-25 09:32N 34°37' E 135°26'0 0.0
2015-Jan-25 08:32N 34°37' E 135°26'0 0.0
2015-Jan-25 07:14N 34°37' E 135°26'0 0.0
2015-Jan-25 06:32N 34°37' E 135°26'0 0.0
2015-Jan-25 05:32N 34°37' E 135°26'0 0.0
2015-Jan-25 04:32N 34°37' E 135°26'0 0.0
2015-Jan-25 03:32N 34°37' E 135°26'0 0.0
2015-Jan-25 02:32N 34°37' E 135°26'0 0.0
2015-Jan-25 01:32N 34°37' E 135°26'0 0.0
2015-Jan-25 00:32N 34°37' E 135°26'0 0.0
2015-Jan-24 23:32N 34°37' E 135°26'9 8.8
2015-Jan-24 22:34N 34°35' E 135°16'1918.7
2015-Jan-24 21:33N 34°34' E 134°53'4 0.1
2015-Jan-23 12:32N 34°34' E 134°48'2121.5
2015-Jan-23 11:33N 34°36' E 135°14'10 9.0
2015-Jan-23 10:26N 34°37' E 135°26'0 0.0
2015-Jan-23 09:32N 34°37' E 135°26'0 0.0
2015-Jan-23 08:29N 34°37' E 135°26'0 0.0
2015-Jan-23 07:29N 34°37' E 135°26'0 0.0
2015-Jan-23 06:29N 34°37' E 135°26'0 0.0
2015-Jan-23 05:23N 34°37' E 135°26'0 0.0
2015-Jan-23 04:29N 34°37' E 135°26'0 0.0
2015-Jan-23 03:23N 34°37' E 135°26'0 0.0
2015-Jan-23 02:29N 34°37' E 135°26'0 0.0
2015-Jan-23 01:23N 34°37' E 135°26'0 0.0
2015-Jan-23 00:29N 34°37' E 135°26'0 0.0
2015-Jan-22 23:29N 34°37' E 135°26'1011.1
2015-Jan-22 22:33N 34°35' E 135°13'1817.8
2015-Jan-22 21:33N 34°34' E 134°52'4 0.1
2015-Jan-21 12:33N 34°34' E 134°47'2221.9
2015-Jan-21 11:33N 34°36' E 135°13'10 9.9
2015-Jan-21 10:31N 34°37' E 135°26'0 0.0
2015-Jan-21 09:31N 34°37' E 135°26'0 0.0
2015-Jan-21 08:31N 34°37' E 135°26'0 0.0
2015-Jan-21 07:31N 34°37' E 135°26'0 0.0
2015-Jan-21 06:25N 34°37' E 135°26'0 0.0
2015-Jan-21 05:31N 34°37' E 135°26'0 0.0
2015-Jan-21 04:25N 34°37' E 135°26'0 0.0
2015-Jan-21 03:31N 34°37' E 135°26'0 0.0
2015-Jan-21 02:31N 34°37' E 135°26'0 0.0
2015-Jan-21 01:31N 34°37' E 135°26'0 0.0
2015-Jan-21 00:31N 34°37' E 135°26'0 0.0
2015-Jan-20 23:31N 34°37' E 135°26'1111.9
2015-Jan-20 22:33N 34°35' E 135°12'1817.9
2015-Jan-20 21:32N 34°33' E 134°50'2 0.1
2015-Jan-19 12:27N 34°35' E 134°52'1820.0
2015-Jan-19 11:34N 34°36' E 135°14'10 9.6
2015-Jan-19 10:30N 34°37' E 135°26'  

Dump ship's entire track history